Hauptseite
METAR-TAF:

METAR-TAF

Flughäfen :

Harbin, China

Breite: 45-45N, Länge: 126-46E, Höhe: 143 m

Beobachtung

Neuester Wetterbericht von vor 37 Minuten, um 14:00 UTC
Wind 4 kt aus Süd/Südost, variierte zwischen Südost und Süd/Südwest
Temperatur 9°C
Luftfeuchtigkeit 66%
Luftdruck 1012 hPa
Sichtweite: 6000 m
Durchbrochene Bewölkung in der Höhe von 4000 ft

METAR: ZYHB 201400Z 16002MPS 130V200 6000 BKN040 09/03 Q1012 NOSIG

Zeit: 22:37 (14:37 UTC)

Prognose

Neuester Wetterbericht von vor 5 Stunden und 34 Minuten, um 09:03 UTC
Gültige Prognose vom 20 um 12 UTC bis 21 um 12 UTC
Wind 8 kt aus Süd
Sichtweite: 6000 m
Aufgelockert bewölkt in der Höhe von 3300 ft

TAF: ZYHB 200903Z 2012/2112 17004MPS 6000 SCT033 TX21/2106Z TN03/2021Z

Wetterbeobachtungen und Prognosen von mehr als 4000 Flughäfen (METAR und TAF Bericht).

Die verfügbaren Stationen werden durch gelbe und rote Markierungen auf der Karte dargestellt.

Führen Sie die Maus auf sie, um den Namen der Station zu sehen.

Darauf klicken, um die Beobachtung von Wetterbeobachtungen und Prognosen zu sehen.

Um die Karte zu ändern : klicken Sie auf den grünen Tasten mit einem schwarzen Kreuz Zum Vergrößern, auf den grünen Button mit einem Gedankenstrich zu verkleinern, oder auf die grünen Pfeile für benachbarte Karten.


METAR-TAF: